createdAt,value
2019-04-22T00:00:50.109Z,99.90
2019-04-22T00:05:02.274Z,99.90
2019-04-22T00:09:19.552Z,99.90
2019-04-22T00:13:18.604Z,99.90
2019-04-22T00:17:25.054Z,99.90
2019-04-22T00:21:22.553Z,99.90
2019-04-22T00:33:34.082Z,99.90
2019-04-22T00:37:37.911Z,99.90
2019-04-22T00:41:36.927Z,99.90
2019-04-22T00:45:40.034Z,99.90
2019-04-22T00:50:06.714Z,99.90
2019-04-22T00:53:34.830Z,99.90
2019-04-22T00:57:32.348Z,99.90
2019-04-22T01:01:37.217Z,99.90
2019-04-22T01:05:46.846Z,99.90
2019-04-22T01:09:49.841Z,99.90
2019-04-22T01:13:45.346Z,99.90
2019-04-22T01:17:52.892Z,99.90
2019-04-22T01:21:52.437Z,99.90
2019-04-22T01:25:57.051Z,99.90
2019-04-22T01:29:52.608Z,99.90
2019-04-22T01:33:49.836Z,99.90
2019-04-22T01:38:01.735Z,99.90
2019-04-22T01:42:18.692Z,99.90
2019-04-22T01:46:25.803Z,99.90
2019-04-22T01:50:21.429Z,99.90
2019-04-22T01:58:23.799Z,99.90
2019-04-22T02:02:30.968Z,99.90
2019-04-22T02:06:30.572Z,99.90
2019-04-22T02:10:34.557Z,99.90
2019-04-22T02:14:33.686Z,99.90
2019-04-22T02:18:33.137Z,99.90
2019-04-22T02:22:50.049Z,99.90
2019-04-22T02:26:35.412Z,99.90
2019-04-22T02:30:49.792Z,99.90
2019-04-22T02:35:01.216Z,99.90
2019-04-22T02:43:01.324Z,99.90
2019-04-22T02:47:11.831Z,99.90
2019-04-22T02:51:12.423Z,99.90
2019-04-22T03:03:20.656Z,99.90
2019-04-22T03:07:09.079Z,99.90
2019-04-22T03:15:13.573Z,99.90
2019-04-22T03:19:38.323Z,99.90
2019-04-22T03:23:36.816Z,99.90
2019-04-22T03:27:23.891Z,99.90
2019-04-22T03:35:42.098Z,99.90
2019-04-22T03:39:55.100Z,99.90
2019-04-22T03:44:17.595Z,99.90
2019-04-22T03:47:41.235Z,99.90
2019-04-22T03:59:47.697Z,99.90
2019-04-22T04:03:51.413Z,99.90
2019-04-22T04:15:42.665Z,99.90
2019-04-22T04:20:05.961Z,99.90
2019-04-22T04:24:11.200Z,99.90
2019-04-22T04:32:29.938Z,99.90
2019-04-22T04:36:03.537Z,99.90
2019-04-22T04:40:25.106Z,99.90
2019-04-22T04:52:19.689Z,97.90
2019-04-22T04:56:17.014Z,97.40
2019-04-22T05:00:38.260Z,97.70
2019-04-22T05:04:14.238Z,97.80
2019-04-22T05:08:01.046Z,97.40
2019-04-22T05:12:24.625Z,97.80
2019-04-22T05:16:41.065Z,96.90
2019-04-22T05:24:26.162Z,95.80
2019-04-22T05:28:28.630Z,95.30
2019-04-22T05:32:33.799Z,95.60
2019-04-22T05:36:35.387Z,94.70
2019-04-22T05:40:40.741Z,93.70
2019-04-22T05:44:34.416Z,92.20
2019-04-22T05:48:38.038Z,91.50
2019-04-22T05:52:31.668Z,90.70
2019-04-22T05:56:37.083Z,90.10
2019-04-22T06:01:07.201Z,87.70
2019-04-22T06:04:48.481Z,87.90
2019-04-22T06:08:45.442Z,85.20
2019-04-22T06:12:55.257Z,85.00
2019-04-22T06:16:57.162Z,84.60
2019-04-22T06:21:06.554Z,83.30
2019-04-22T06:25:01.298Z,81.30
2019-04-22T06:29:13.725Z,79.60
2019-04-22T06:33:12.538Z,78.20
2019-04-22T06:37:18.726Z,78.40
2019-04-22T06:41:25.333Z,77.30
2019-04-22T06:45:21.871Z,78.20
2019-04-22T06:53:32.724Z,76.20
2019-04-22T06:57:25.458Z,76.80
2019-04-22T07:01:27.619Z,74.10
2019-04-22T07:05:37.290Z,72.30
2019-04-22T07:09:42.800Z,72.80
2019-04-22T07:13:45.251Z,72.10
2019-04-22T07:17:49.112Z,72.20
2019-04-22T07:21:44.159Z,69.70
2019-04-22T07:25:56.579Z,70.00
2019-04-22T07:34:17.867Z,68.70
2019-04-22T07:38:05.841Z,68.00
2019-04-22T07:42:05.539Z,67.50
2019-04-22T07:46:00.612Z,66.10
2019-04-22T07:50:09.792Z,64.60
2019-04-22T07:54:06.260Z,62.40
2019-04-22T07:58:09.559Z,64.40
2019-04-22T08:02:10.183Z,63.50
2019-04-22T08:06:12.333Z,63.80
2019-04-22T08:10:17.103Z,60.80
2019-04-22T08:14:14.637Z,61.60
2019-04-22T08:18:09.910Z,60.90
2019-04-22T08:22:07.900Z,60.80
2019-04-22T08:26:11.418Z,56.90
2019-04-22T08:30:20.386Z,58.40
2019-04-22T08:34:22.613Z,58.40
2019-04-22T08:38:33.651Z,58.00
2019-04-22T08:42:34.750Z,58.40
2019-04-22T08:46:35.208Z,55.50
2019-04-22T08:50:33.472Z,56.20
2019-04-22T08:58:45.141Z,52.60
2019-04-22T09:02:41.482Z,54.00
2019-04-22T09:10:43.587Z,53.60
2019-04-22T09:14:45.834Z,53.90
2019-04-22T09:18:57.484Z,52.00
2019-04-22T09:22:53.934Z,51.00
2019-04-22T09:26:54.534Z,51.40
2019-04-22T09:31:01.546Z,50.20
2019-04-22T09:35:09.967Z,50.60
2019-04-22T09:39:19.456Z,50.00
2019-04-22T09:42:59.336Z,50.50
2019-04-22T09:47:19.458Z,50.50
2019-04-22T09:51:05.557Z,50.00
2019-04-22T09:59:13.351Z,50.00
2019-04-22T10:03:20.365Z,48.90
2019-04-22T10:07:20.958Z,49.40
2019-04-22T10:11:31.060Z,50.40
2019-04-22T10:15:19.572Z,50.10
2019-04-22T10:23:19.072Z,50.00
2019-04-22T10:27:26.206Z,49.70
2019-04-22T10:32:14.254Z,50.20
2019-04-22T10:35:19.895Z,48.60
2019-04-22T10:39:18.362Z,48.40
2019-04-22T10:43:17.225Z,48.40
2019-04-22T10:47:18.055Z,49.70
2019-04-22T10:51:16.952Z,48.90
2019-04-22T10:55:17.272Z,48.40
2019-04-22T10:59:18.592Z,48.50
2019-04-22T11:03:20.146Z,46.50
2019-04-22T11:07:26.798Z,47.60
2019-04-22T11:11:34.779Z,47.80
2019-04-22T11:15:24.337Z,46.90
2019-04-22T11:19:25.604Z,48.10
2019-04-22T11:23:27.046Z,48.30
2019-04-22T11:27:25.338Z,46.90
2019-04-22T11:31:24.291Z,47.90
2019-04-22T11:35:29.776Z,48.60
2019-04-22T11:39:36.636Z,47.30
2019-04-22T11:43:38.991Z,45.50
2019-04-22T11:47:39.335Z,44.90
2019-04-22T11:51:38.135Z,44.40
2019-04-22T11:55:37.265Z,45.70
2019-04-22T11:59:36.423Z,46.80
2019-04-22T12:03:35.815Z,46.40
2019-04-22T12:07:36.609Z,46.50
2019-04-22T12:11:36.456Z,45.40
2019-04-22T12:15:35.584Z,45.90
2019-04-22T12:19:36.216Z,45.70
2019-04-22T12:23:35.038Z,44.50
2019-04-22T12:27:36.892Z,45.00
2019-04-22T12:31:35.763Z,45.40
2019-04-22T12:35:36.978Z,45.10
2019-04-22T12:39:36.901Z,45.20
2019-04-22T12:43:38.741Z,46.90
2019-04-22T12:47:44.153Z,49.00
2019-04-22T12:51:42.970Z,48.80
2019-04-22T12:55:42.070Z,48.90
2019-04-22T12:59:43.794Z,49.10
2019-04-22T13:03:42.682Z,49.20
2019-04-22T13:07:41.840Z,49.10
2019-04-22T13:11:42.249Z,50.70
2019-04-22T13:19:54.009Z,50.60
2019-04-22T13:23:53.140Z,50.60
2019-04-22T13:27:53.302Z,49.70
2019-04-22T13:31:55.511Z,49.70
2019-04-22T13:35:54.381Z,49.90
2019-04-22T13:39:54.793Z,49.40
2019-04-22T13:43:53.888Z,47.70
2019-04-22T13:48:11.152Z,47.60
2019-04-22T13:52:35.654Z,47.70
2019-04-22T13:56:13.604Z,46.90
2019-04-22T13:59:58.143Z,47.50
2019-04-22T14:04:02.690Z,46.20
2019-04-22T14:08:04.306Z,44.90
2019-04-22T14:12:08.187Z,44.70
2019-04-22T14:16:08.880Z,45.00
2019-04-22T14:20:10.948Z,44.70
2019-04-22T14:24:12.532Z,44.30
2019-04-22T14:28:15.066Z,44.90
2019-04-22T14:36:11.645Z,44.80
2019-04-22T14:40:20.718Z,43.90
2019-04-22T14:44:42.444Z,45.80
2019-04-22T14:48:46.684Z,38.10
2019-04-22T14:52:39.554Z,38.00
2019-04-22T14:56:20.257Z,37.60
2019-04-22T15:00:22.082Z,37.60
2019-04-22T15:04:21.631Z,36.70
2019-04-22T15:08:21.361Z,36.40
2019-04-22T15:12:31.035Z,36.50
2019-04-22T15:16:39.859Z,35.30
2019-04-22T15:20:54.279Z,35.10
2019-04-22T15:24:54.479Z,34.60
2019-04-22T15:28:53.550Z,34.80
2019-04-22T15:32:57.105Z,34.00
2019-04-22T15:36:56.019Z,34.00
2019-04-22T15:40:56.661Z,34.00
2019-04-22T15:44:55.947Z,35.30
2019-04-22T15:49:00.282Z,38.00
2019-04-22T15:53:00.846Z,40.20
2019-04-22T15:56:59.210Z,42.20
2019-04-22T16:01:08.946Z,43.60
2019-04-22T16:04:58.864Z,42.00
2019-04-22T16:09:00.219Z,42.80
2019-04-22T16:13:07.378Z,44.40
2019-04-22T16:17:01.301Z,44.00
2019-04-22T16:21:00.165Z,45.80
2019-04-22T16:25:13.341Z,45.80
2019-04-22T16:29:15.814Z,46.40
2019-04-22T16:33:15.197Z,46.40
2019-04-22T16:37:14.735Z,46.50
2019-04-22T16:41:14.645Z,47.20
2019-04-22T16:45:13.623Z,47.80
2019-04-22T16:49:15.939Z,48.40
2019-04-22T16:53:15.141Z,48.50
2019-04-22T16:57:15.878Z,48.90
2019-04-22T17:01:34.764Z,49.00
2019-04-22T17:05:38.235Z,49.30
2019-04-22T17:09:37.555Z,49.40
2019-04-22T17:13:38.070Z,50.00
2019-04-22T17:17:39.148Z,50.00
2019-04-22T17:21:41.862Z,50.10
2019-04-22T17:25:40.586Z,50.30
2019-04-22T17:29:40.899Z,50.20
2019-04-22T17:33:39.476Z,50.10
2019-04-22T17:37:39.589Z,50.70
2019-04-22T17:41:55.295Z,50.90
2019-04-22T17:45:59.864Z,51.60
2019-04-22T17:50:13.348Z,52.30
2019-04-22T17:54:22.519Z,53.10
2019-04-22T17:58:34.727Z,53.60
2019-04-22T18:02:25.232Z,53.90
2019-04-22T18:06:35.046Z,55.00
2019-04-22T18:10:47.687Z,55.80
2019-04-22T18:14:46.461Z,56.00
2019-04-22T18:18:47.649Z,56.00
2019-04-22T18:22:33.026Z,55.90
2019-04-22T18:26:40.385Z,55.40
2019-04-22T18:30:34.709Z,55.80
2019-04-22T18:34:37.264Z,55.80
2019-04-22T18:38:56.167Z,56.30
2019-04-22T18:42:55.204Z,56.50
2019-04-22T18:46:51.254Z,57.60
2019-04-22T18:51:00.154Z,57.50
2019-04-22T18:55:14.643Z,57.90
2019-04-22T18:59:02.459Z,57.90
2019-04-22T19:02:59.027Z,57.70
2019-04-22T19:07:28.710Z,57.80
2019-04-22T19:11:24.179Z,58.40
2019-04-22T19:15:54.262Z,57.70
2019-04-22T19:19:51.010Z,57.60
2019-04-22T19:23:50.527Z,57.50
2019-04-22T19:28:01.206Z,57.90
2019-04-22T19:32:01.805Z,57.60
2019-04-22T19:36:08.528Z,58.10
2019-04-22T19:40:17.615Z,57.30
2019-04-22T19:44:17.742Z,57.40
2019-04-22T19:48:28.326Z,57.20
2019-04-22T19:52:24.556Z,56.60
2019-04-22T19:56:32.543Z,56.30
2019-04-22T20:00:37.422Z,56.00
2019-04-22T20:04:55.842Z,55.10
2019-04-22T20:08:57.340Z,54.20
2019-04-22T20:12:58.380Z,53.10
2019-04-22T20:17:02.591Z,53.80
2019-04-22T20:21:22.331Z,53.10
2019-04-22T20:25:10.966Z,53.70
2019-04-22T20:29:30.512Z,54.20
2019-04-22T20:33:30.512Z,54.70
2019-04-22T20:37:49.402Z,54.90
2019-04-22T20:41:41.068Z,54.60
2019-04-22T20:45:52.706Z,54.80
2019-04-22T20:49:58.961Z,54.80
2019-04-22T20:54:02.683Z,54.70
2019-04-22T20:58:34.201Z,54.70
2019-04-22T21:02:32.412Z,54.90
2019-04-22T21:06:36.839Z,54.90
2019-04-22T21:10:33.390Z,55.00
2019-04-22T21:14:53.594Z,55.30
2019-04-22T21:18:43.840Z,55.70
2019-04-22T21:22:49.376Z,56.00
2019-04-22T21:26:56.644Z,56.00
2019-04-22T21:30:57.198Z,56.40
2019-04-22T21:35:06.539Z,56.80
2019-04-22T21:38:58.914Z,57.30
2019-04-22T21:43:08.845Z,57.70
2019-04-22T21:47:10.444Z,58.20
2019-04-22T21:51:04.995Z,58.90
2019-04-22T21:55:10.247Z,59.00
2019-04-22T21:59:12.866Z,59.60
2019-04-22T22:03:19.246Z,59.80
2019-04-22T22:07:03.012Z,60.20
2019-04-22T22:11:13.611Z,60.70
2019-04-22T22:15:22.508Z,62.00
2019-04-22T22:19:15.463Z,62.60
2019-04-22T22:27:18.773Z,63.90
2019-04-22T22:31:22.495Z,64.30
2019-04-22T22:35:20.647Z,64.90
2019-04-22T22:39:10.364Z,65.60
2019-04-22T22:42:59.858Z,66.20
2019-04-22T22:47:16.609Z,66.80
2019-04-22T22:51:29.910Z,66.80
2019-04-22T22:55:24.804Z,67.50
2019-04-22T22:59:33.209Z,68.40
2019-04-22T23:03:49.088Z,68.50
2019-04-22T23:07:38.995Z,68.60
2019-04-22T23:12:22.608Z,68.90
2019-04-22T23:15:36.592Z,69.80
2019-04-22T23:19:17.907Z,70.10
2019-04-22T23:23:37.891Z,70.60
2019-04-22T23:27:38.763Z,71.10
2019-04-22T23:31:31.848Z,71.00
2019-04-22T23:35:45.931Z,71.40
2019-04-22T23:39:58.427Z,71.40
2019-04-22T23:44:07.427Z,71.60
2019-04-22T23:47:47.338Z,72.00
2019-04-22T23:52:10.097Z,72.60
2019-04-22T23:56:07.950Z,72.80
